sensor_id;sensor_type;location;lat;lon;timestamp;pressure;altitude;pressure_sealevel;temperature;humidity
20105;BME280;10212;42.714;23.310;2022-11-11T00:04:19;96342.66;;;5.64;100.00
20105;BME280;10212;42.714;23.310;2022-11-11T00:09:19;96342.63;;;5.74;100.00
20105;BME280;10212;42.714;23.310;2022-11-11T00:14:21;96341.34;;;5.40;100.00
20105;BME280;10212;42.714;23.310;2022-11-11T00:19:22;96349.25;;;5.28;100.00
20105;BME280;10212;42.714;23.310;2022-11-11T00:24:42;96347.34;;;5.30;100.00
20105;BME280;10212;42.714;23.310;2022-11-11T00:30:01;96347.06;;;5.24;100.00
20105;BME280;10212;42.714;23.310;2022-11-11T00:35:04;96342.97;;;5.41;100.00
20105;BME280;10212;42.714;23.310;2022-11-11T00:40:23;96355.19;;;5.59;100.00
20105;BME280;10212;42.714;23.310;2022-11-11T00:45:25;96349.16;;;5.78;100.00
20105;BME280;10212;42.714;23.310;2022-11-11T00:50:26;96346.41;;;6.46;100.00
20105;BME280;10212;42.714;23.310;2022-11-11T00:55:46;96339.13;;;6.96;100.00
20105;BME280;10212;42.714;23.310;2022-11-11T01:00:49;96339.91;;;7.15;100.00
20105;BME280;10212;42.714;23.310;2022-11-11T01:05:52;96334.16;;;7.03;100.00
20105;BME280;10212;42.714;23.310;2022-11-11T01:10:54;96332.75;;;6.54;97.92
20105;BME280;10212;42.714;23.310;2022-11-11T01:15:59;96328.25;;;6.27;98.19
20105;BME280;10212;42.714;23.310;2022-11-11T01:21:01;96335.69;;;6.12;98.97
20105;BME280;10212;42.714;23.310;2022-11-11T01:26:04;96333.41;;;5.99;100.00
20105;BME280;10212;42.714;23.310;2022-11-11T01:31:06;96340.81;;;5.84;100.00
20105;BME280;10212;42.714;23.310;2022-11-11T01:36:17;96331.59;;;5.72;98.99
20105;BME280;10212;42.714;23.310;2022-11-11T01:41:19;96328.78;;;5.55;99.46
20105;BME280;10212;42.714;23.310;2022-11-11T01:51:41;96342.38;;;5.67;100.00
20105;BME280;10212;42.714;23.310;2022-11-11T01:56:45;96332.06;;;5.57;100.00
20105;BME280;10212;42.714;23.310;2022-11-11T02:01:47;96337.44;;;5.74;100.00
20105;BME280;10212;42.714;23.310;2022-11-11T02:06:50;96341.19;;;6.56;100.00
20105;BME280;10212;42.714;23.310;2022-11-11T02:11:52;96349.28;;;7.07;100.00
20105;BME280;10212;42.714;23.310;2022-11-11T02:17:13;96342.50;;;7.33;100.00
20105;BME280;10212;42.714;23.310;2022-11-11T02:22:24;96343.22;;;7.43;100.00
20105;BME280;10212;42.714;23.310;2022-11-11T02:27:26;96344.00;;;7.62;100.00
20105;BME280;10212;42.714;23.310;2022-11-11T02:32:29;96348.91;;;7.74;100.00
20105;BME280;10212;42.714;23.310;2022-11-11T02:37:29;96346.06;;;7.32;94.82
20105;BME280;10212;42.714;23.310;2022-11-11T02:42:29;96354.84;;;6.30;94.34
20105;BME280;10212;42.714;23.310;2022-11-11T02:47:32;96351.91;;;5.66;95.26
20105;BME280;10212;42.714;23.310;2022-11-11T02:52:32;96360.41;;;5.39;97.31
20105;BME280;10212;42.714;23.310;2022-11-11T02:57:34;96358.78;;;4.98;98.31
20105;BME280;10212;42.714;23.310;2022-11-11T03:02:35;96359.88;;;4.86;99.04
20105;BME280;10212;42.714;23.310;2022-11-11T03:07:37;96358.78;;;4.78;99.50
20105;BME280;10212;42.714;23.310;2022-11-11T03:12:37;96359.19;;;4.83;99.38
20105;BME280;10212;42.714;23.310;2022-11-11T03:17:39;96361.63;;;4.85;99.14
20105;BME280;10212;42.714;23.310;2022-11-11T03:22:40;96359.19;;;4.83;98.63
20105;BME280;10212;42.714;23.310;2022-11-11T03:27:42;96349.53;;;4.86;98.72
20105;BME280;10212;42.714;23.310;2022-11-11T03:37:47;96349.78;;;5.02;99.15
20105;BME280;10212;42.714;23.310;2022-11-11T03:43:06;96349.81;;;5.12;97.72
20105;BME280;10212;42.714;23.310;2022-11-11T03:48:06;96359.31;;;5.12;97.82
20105;BME280;10212;42.714;23.310;2022-11-11T03:53:07;96345.56;;;5.31;97.11
20105;BME280;10212;42.714;23.310;2022-11-11T03:58:08;96347.34;;;5.30;97.41
20105;BME280;10212;42.714;23.310;2022-11-11T04:08:30;96342.91;;;5.71;96.02
20105;BME280;10212;42.714;23.310;2022-11-11T04:13:49;96333.88;;;5.75;96.04
20105;BME280;10212;42.714;23.310;2022-11-11T04:19:09;96341.72;;;6.03;96.96
20105;BME280;10212;42.714;23.310;2022-11-11T04:24:28;96351.03;;;6.52;96.36
20105;BME280;10212;42.714;23.310;2022-11-11T04:29:47;96357.44;;;6.94;100.00
20105;BME280;10212;42.714;23.310;2022-11-11T04:34:50;96367.63;;;6.78;95.86
20105;BME280;10212;42.714;23.310;2022-11-11T04:39:50;96359.41;;;6.64;95.88
20105;BME280;10212;42.714;23.310;2022-11-11T04:45:10;96361.50;;;7.15;100.00
20105;BME280;10212;42.714;23.310;2022-11-11T04:50:30;96362.66;;;8.27;100.00
20105;BME280;10212;42.714;23.310;2022-11-11T04:55:33;96352.91;;;8.73;100.00
20105;BME280;10212;42.714;23.310;2022-11-11T05:00:52;96354.88;;;9.04;100.00
20105;BME280;10212;42.714;23.310;2022-11-11T05:05:57;96355.72;;;9.21;100.00
20105;BME280;10212;42.714;23.310;2022-11-11T05:11:16;96365.63;;;9.34;100.00
20105;BME280;10212;42.714;23.310;2022-11-11T05:16:20;96359.78;;;9.40;100.00
20105;BME280;10212;42.714;23.310;2022-11-11T05:21:40;96365.31;;;9.46;100.00
20105;BME280;10212;42.714;23.310;2022-11-11T05:26:40;96369.88;;;9.44;100.00
20105;BME280;10212;42.714;23.310;2022-11-11T05:31:40;96381.56;;;9.39;99.83
20105;BME280;10212;42.714;23.310;2022-11-11T05:36:41;96385.66;;;9.34;100.00
20105;BME280;10212;42.714;23.310;2022-11-11T05:41:41;96393.59;;;9.32;99.10
20105;BME280;10212;42.714;23.310;2022-11-11T05:46:41;96396.88;;;9.26;98.99
20105;BME280;10212;42.714;23.310;2022-11-11T05:51:45;96409.56;;;9.21;99.30
20105;BME280;10212;42.714;23.310;2022-11-11T05:56:45;96412.50;;;9.18;99.00
20105;BME280;10212;42.714;23.310;2022-11-11T06:01:46;96422.72;;;9.27;98.63
20105;BME280;10212;42.714;23.310;2022-11-11T06:06:46;96425.19;;;9.29;98.55
20105;BME280;10212;42.714;23.310;2022-11-11T06:11:46;96434.25;;;9.16;99.43
20105;BME280;10212;42.714;23.310;2022-11-11T06:16:47;96441.41;;;9.06;99.59
20105;BME280;10212;42.714;23.310;2022-11-11T06:21:47;96435.09;;;9.17;99.08
20105;BME280;10212;42.714;23.310;2022-11-11T06:26:56;96437.53;;;9.27;98.69
20105;BME280;10212;42.714;23.310;2022-11-11T06:31:57;96442.06;;;9.00;99.96
20105;BME280;10212;42.714;23.310;2022-11-11T06:36:57;96459.59;;;8.98;100.00
20105;BME280;10212;42.714;23.310;2022-11-11T06:41:57;96464.66;;;9.08;99.86
20105;BME280;10212;42.714;23.310;2022-11-11T06:46:59;96473.63;;;9.22;98.86
20105;BME280;10212;42.714;23.310;2022-11-11T06:51:59;96471.19;;;9.12;99.36
20105;BME280;10212;42.714;23.310;2022-11-11T06:57:00;96471.03;;;9.22;99.15
20105;BME280;10212;42.714;23.310;2022-11-11T07:02:00;96473.00;;;9.20;99.97
20105;BME280;10212;42.714;23.310;2022-11-11T07:07:00;96477.22;;;9.29;99.45
20105;BME280;10212;42.714;23.310;2022-11-11T07:12:01;96483.44;;;9.36;98.21
20105;BME280;10212;42.714;23.310;2022-11-11T07:17:01;96481.31;;;9.32;98.57
20105;BME280;10212;42.714;23.310;2022-11-11T07:22:01;96480.19;;;9.51;97.51
20105;BME280;10212;42.714;23.310;2022-11-11T07:27:02;96489.31;;;9.55;97.68
20105;BME280;10212;42.714;23.310;2022-11-11T07:32:03;96499.38;;;9.41;97.95
20105;BME280;10212;42.714;23.310;2022-11-11T07:37:03;96506.69;;;9.29;99.20
20105;BME280;10212;42.714;23.310;2022-11-11T07:42:04;96502.97;;;9.49;97.74
20105;BME280;10212;42.714;23.310;2022-11-11T07:47:04;96510.13;;;9.38;98.13
20105;BME280;10212;42.714;23.310;2022-11-11T07:52:05;96523.59;;;9.25;97.90
20105;BME280;10212;42.714;23.310;2022-11-11T07:57:05;96521.28;;;9.14;98.23
20105;BME280;10212;42.714;23.310;2022-11-11T08:02:08;96529.22;;;9.04;98.96
20105;BME280;10212;42.714;23.310;2022-11-11T08:07:09;96523.72;;;9.15;97.99
20105;BME280;10212;42.714;23.310;2022-11-11T08:12:09;96523.94;;;9.31;97.13
20105;BME280;10212;42.714;23.310;2022-11-11T08:17:29;96533.56;;;9.38;97.00
20105;BME280;10212;42.714;23.310;2022-11-11T08:22:34;96521.38;;;9.47;96.25
20105;BME280;10212;42.714;23.310;2022-11-11T08:27:34;96523.66;;;9.59;95.22
20105;BME280;10212;42.714;23.310;2022-11-11T08:32:35;96522.84;;;9.75;94.17
20105;BME280;10212;42.714;23.310;2022-11-11T08:37:35;96535.91;;;9.83;92.88
20105;BME280;10212;42.714;23.310;2022-11-11T08:42:35;96525.47;;;10.08;91.20
20105;BME280;10212;42.714;23.310;2022-11-11T08:47:36;96529.66;;;10.59;88.97
20105;BME280;10212;42.714;23.310;2022-11-11T08:52:36;96527.41;;;10.48;88.56
20105;BME280;10212;42.714;23.310;2022-11-11T08:57:37;96526.09;;;11.01;86.76
20105;BME280;10212;42.714;23.310;2022-11-11T09:02:38;96524.25;;;11.09;85.57
20105;BME280;10212;42.714;23.310;2022-11-11T09:07:38;96527.25;;;10.98;84.59
20105;BME280;10212;42.714;23.310;2022-11-11T09:12:39;96516.78;;;11.06;83.41
20105;BME280;10212;42.714;23.310;2022-11-11T09:17:45;96516.28;;;11.34;81.83
20105;BME280;10212;42.714;23.310;2022-11-11T09:22:45;96523.13;;;11.36;80.19
20105;BME280;10212;42.714;23.310;2022-11-11T09:27:55;96532.38;;;11.15;80.33
20105;BME280;10212;42.714;23.310;2022-11-11T09:33:00;96523.06;;;11.20;79.68
20105;BME280;10212;42.714;23.310;2022-11-11T09:38:00;96514.13;;;11.15;79.83
20105;BME280;10212;42.714;23.310;2022-11-11T09:43:09;96512.53;;;11.05;79.99
20105;BME280;10212;42.714;23.310;2022-11-11T09:53:29;96500.81;;;11.01;80.65
20105;BME280;10212;42.714;23.310;2022-11-11T09:58:41;96499.84;;;10.94;80.41
20105;BME280;10212;42.714;23.310;2022-11-11T10:03:45;96496.94;;;10.89;80.04
20105;BME280;10212;42.714;23.310;2022-11-11T10:08:57;96483.19;;;11.03;80.31
20105;BME280;10212;42.714;23.310;2022-11-11T10:14:01;96483.00;;;11.37;78.42
20105;BME280;10212;42.714;23.310;2022-11-11T10:24:24;96492.75;;;11.66;77.36
20105;BME280;10212;42.714;23.310;2022-11-11T10:29:25;96491.59;;;11.45;77.32
20105;BME280;10212;42.714;23.310;2022-11-11T10:34:31;96492.63;;;11.04;79.05
20105;BME280;10212;42.714;23.310;2022-11-11T10:39:43;96484.13;;;11.11;77.86
20105;BME280;10212;42.714;23.310;2022-11-11T10:44:45;96480.69;;;10.78;77.74
20105;BME280;10212;42.714;23.310;2022-11-11T10:49:54;96480.63;;;10.87;76.34
20105;BME280;10212;42.714;23.310;2022-11-11T10:54:58;96472.94;;;10.93;75.71
20105;BME280;10212;42.714;23.310;2022-11-11T11:00:03;96471.97;;;11.26;74.52
20105;BME280;10212;42.714;23.310;2022-11-11T11:05:07;96461.00;;;10.99;75.22
20105;BME280;10212;42.714;23.310;2022-11-11T11:10:21;96454.59;;;11.57;73.13
20105;BME280;10212;42.714;23.310;2022-11-11T11:15:24;96452.44;;;11.84;70.93
20105;BME280;10212;42.714;23.310;2022-11-11T11:20:26;96450.56;;;11.93;69.61
20105;BME280;10212;42.714;23.310;2022-11-11T11:25:27;96443.66;;;12.15;67.83
20105;BME280;10212;42.714;23.310;2022-11-11T11:30:32;96433.56;;;12.42;65.93
20105;BME280;10212;42.714;23.310;2022-11-11T11:35:39;96429.41;;;12.33;65.39
20105;BME280;10212;42.714;23.310;2022-11-11T11:45:53;96423.19;;;12.19;65.73
20105;BME280;10212;42.714;23.310;2022-11-11T12:01:38;96421.97;;;11.91;66.85
20105;BME280;10212;42.714;23.310;2022-11-11T12:17:01;96407.81;;;11.86;66.16
20105;BME280;10212;42.714;23.310;2022-11-11T12:22:17;96409.78;;;11.84;65.77
20105;BME280;10212;42.714;23.310;2022-11-11T12:28:25;96400.25;;;11.91;64.93
20105;BME280;10212;42.714;23.310;2022-11-11T12:43:06;96405.25;;;12.01;66.76
20105;BME280;10212;42.714;23.310;2022-11-11T13:03:28;96412.00;;;11.95;67.05
20105;BME280;10212;42.714;23.310;2022-11-11T13:08:54;96409.63;;;11.85;67.14
20105;BME280;10212;42.714;23.310;2022-11-11T13:14:16;96401.47;;;11.65;67.84
20105;BME280;10212;42.714;23.310;2022-11-11T13:19:23;96411.56;;;11.68;67.04
20105;BME280;10212;42.714;23.310;2022-11-11T13:24:28;96410.69;;;11.76;67.07
20105;BME280;10212;42.714;23.310;2022-11-11T13:34:38;96406.50;;;11.51;67.78
20105;BME280;10212;42.714;23.310;2022-11-11T13:39:40;96409.44;;;11.48;68.01
20105;BME280;10212;42.714;23.310;2022-11-11T13:45:18;96415.00;;;11.68;67.80
20105;BME280;10212;42.714;23.310;2022-11-11T13:50:23;96412.63;;;11.58;67.97
20105;BME280;10212;42.714;23.310;2022-11-11T13:55:38;96411.81;;;11.58;68.57
20105;BME280;10212;42.714;23.310;2022-11-11T14:00:40;96419.66;;;11.58;68.35
20105;BME280;10212;42.714;23.310;2022-11-11T14:05:40;96425.19;;;11.40;69.16
20105;BME280;10212;42.714;23.310;2022-11-11T14:10:49;96420.59;;;11.42;68.70
20105;BME280;10212;42.714;23.310;2022-11-11T14:15:50;96420.97;;;11.39;69.12
20105;BME280;10212;42.714;23.310;2022-11-11T14:20:53;96423.56;;;11.39;68.62
20105;BME280;10212;42.714;23.310;2022-11-11T14:36:16;96439.34;;;11.22;70.04
20105;BME280;10212;42.714;23.310;2022-11-11T14:47:06;96436.25;;;11.18;72.08
20105;BME280;10212;42.714;23.310;2022-11-11T14:51:58;96437.72;;;11.21;71.69
20105;BME280;10212;42.714;23.310;2022-11-11T14:57:00;96439.53;;;11.20;71.68
20105;BME280;10212;42.714;23.310;2022-11-11T15:02:03;96446.22;;;11.23;72.12
20105;BME280;10212;42.714;23.310;2022-11-11T15:07:04;96446.66;;;11.27;72.38
20105;BME280;10212;42.714;23.310;2022-11-11T15:12:25;96445.94;;;11.09;72.77
20105;BME280;10212;42.714;23.310;2022-11-11T15:22:56;96460.22;;;11.22;72.66
20105;BME280;10212;42.714;23.310;2022-11-11T15:33:10;96454.84;;;10.92;72.76
20105;BME280;10212;42.714;23.310;2022-11-11T15:38:14;96453.81;;;11.01;72.79
20105;BME280;10212;42.714;23.310;2022-11-11T15:43:19;96455.63;;;11.01;72.74
20105;BME280;10212;42.714;23.310;2022-11-11T15:48:42;96464.81;;;10.88;72.50
20105;BME280;10212;42.714;23.310;2022-11-11T15:53:41;96467.09;;;10.91;72.67
20105;BME280;10212;42.714;23.310;2022-11-11T15:58:42;96471.94;;;10.63;73.89
20105;BME280;10212;42.714;23.310;2022-11-11T16:03:42;96476.47;;;10.69;73.62
20105;BME280;10212;42.714;23.310;2022-11-11T16:08:44;96475.56;;;10.53;73.48
20105;BME280;10212;42.714;23.310;2022-11-11T16:13:51;96477.69;;;10.49;74.04
20105;BME280;10212;42.714;23.310;2022-11-11T16:18:57;96481.09;;;10.33;75.32
20105;BME280;10212;42.714;23.310;2022-11-11T16:24:01;96496.16;;;10.06;76.88
20105;BME280;10212;42.714;23.310;2022-11-11T16:29:01;96487.66;;;10.12;76.38
20105;BME280;10212;42.714;23.310;2022-11-11T16:39:21;96507.91;;;9.94;77.40
20105;BME280;10212;42.714;23.310;2022-11-11T16:49:38;96518.94;;;9.96;77.00
20105;BME280;10212;42.714;23.310;2022-11-11T16:54:52;96532.81;;;9.88;77.56
20105;BME280;10212;42.714;23.310;2022-11-11T16:59:56;96527.09;;;9.84;77.69
20105;BME280;10212;42.714;23.310;2022-11-11T17:04:58;96535.09;;;9.83;77.66
20105;BME280;10212;42.714;23.310;2022-11-11T17:15:12;96537.53;;;9.76;78.45
20105;BME280;10212;42.714;23.310;2022-11-11T17:20:14;96542.38;;;9.62;79.31
20105;BME280;10212;42.714;23.310;2022-11-11T17:25:14;96544.03;;;9.63;79.18
20105;BME280;10212;42.714;23.310;2022-11-11T17:30:17;96542.53;;;9.61;79.84
20105;BME280;10212;42.714;23.310;2022-11-11T17:35:18;96544.19;;;9.62;79.56
20105;BME280;10212;42.714;23.310;2022-11-11T17:40:18;96539.44;;;9.49;80.27
20105;BME280;10212;42.714;23.310;2022-11-11T17:45:19;96540.75;;;9.53;79.93
20105;BME280;10212;42.714;23.310;2022-11-11T17:50:20;96531.31;;;9.60;79.62
20105;BME280;10212;42.714;23.310;2022-11-11T17:55:21;96532.28;;;9.68;79.31
20105;BME280;10212;42.714;23.310;2022-11-11T18:00:21;96528.34;;;9.38;80.37
20105;BME280;10212;42.714;23.310;2022-11-11T18:05:21;96522.16;;;9.39;80.07
20105;BME280;10212;42.714;23.310;2022-11-11T18:10:22;96521.69;;;9.44;79.69
20105;BME280;10212;42.714;23.310;2022-11-11T18:15:22;96527.69;;;9.45;80.15
20105;BME280;10212;42.714;23.310;2022-11-11T18:20:23;96524.91;;;9.38;80.36
20105;BME280;10212;42.714;23.310;2022-11-11T18:25:23;96530.78;;;9.48;79.54
20105;BME280;10212;42.714;23.310;2022-11-11T18:30:23;96538.69;;;9.22;80.01
20105;BME280;10212;42.714;23.310;2022-11-11T18:35:24;96530.63;;;9.33;80.11
20105;BME280;10212;42.714;23.310;2022-11-11T18:40:24;96534.97;;;9.16;80.28
20105;BME280;10212;42.714;23.310;2022-11-11T18:45:26;96548.94;;;9.23;80.33
20105;BME280;10212;42.714;23.310;2022-11-11T18:50:29;96547.13;;;9.07;80.40
20105;BME280;10212;42.714;23.310;2022-11-11T18:55:29;96547.13;;;9.07;80.75
20105;BME280;10212;42.714;23.310;2022-11-11T19:00:30;96545.81;;;9.03;80.72
20105;BME280;10212;42.714;23.310;2022-11-11T19:05:30;96545.63;;;8.96;80.94
20105;BME280;10212;42.714;23.310;2022-11-11T19:10:31;96554.69;;;8.92;80.97
20105;BME280;10212;42.714;23.310;2022-11-11T19:15:31;96548.66;;;8.91;81.14
20105;BME280;10212;42.714;23.310;2022-11-11T19:20:32;96556.44;;;8.83;81.60
20105;BME280;10212;42.714;23.310;2022-11-11T19:25:34;96547.03;;;8.82;81.71
20105;BME280;10212;42.714;23.310;2022-11-11T19:30:35;96562.34;;;8.93;81.46
20105;BME280;10212;42.714;23.310;2022-11-11T19:35:35;96565.22;;;8.82;81.95
20105;BME280;10212;42.714;23.310;2022-11-11T19:40:36;96555.84;;;8.89;81.74
20105;BME280;10212;42.714;23.310;2022-11-11T19:45:36;96558.78;;;8.95;81.09
20105;BME280;10212;42.714;23.310;2022-11-11T19:50:37;96559.91;;;8.92;82.05
20105;BME280;10212;42.714;23.310;2022-11-11T19:55:37;96569.13;;;8.86;83.11
20105;BME280;10212;42.714;23.310;2022-11-11T20:00:38;96574.22;;;8.61;85.01
20105;BME280;10212;42.714;23.310;2022-11-11T20:05:38;96591.28;;;8.64;86.09
20105;BME280;10212;42.714;23.310;2022-11-11T20:10:40;96596.72;;;8.26;90.02
20105;BME280;10212;42.714;23.310;2022-11-11T20:15:41;96591.91;;;7.76;94.71
20105;BME280;10212;42.714;23.310;2022-11-11T20:20:41;96589.94;;;7.60;97.38
20105;BME280;10212;42.714;23.310;2022-11-11T20:25:41;96598.91;;;7.47;96.58
20105;BME280;10212;42.714;23.310;2022-11-11T20:30:42;96604.88;;;7.30;97.26
20105;BME280;10212;42.714;23.310;2022-11-11T20:35:42;96614.38;;;7.11;100.00
20105;BME280;10212;42.714;23.310;2022-11-11T20:40:43;96610.81;;;7.12;98.51
20105;BME280;10212;42.714;23.310;2022-11-11T20:45:44;96616.53;;;7.16;98.48
20105;BME280;10212;42.714;23.310;2022-11-11T20:50:45;96617.31;;;7.26;98.21
20105;BME280;10212;42.714;23.310;2022-11-11T20:55:45;96615.63;;;7.35;98.55
20105;BME280;10212;42.714;23.310;2022-11-11T21:00:45;96620.22;;;7.41;98.62
20105;BME280;10212;42.714;23.310;2022-11-11T21:05:46;96614.78;;;7.44;98.75
20105;BME280;10212;42.714;23.310;2022-11-11T21:10:46;96622.03;;;7.41;99.01
20105;BME280;10212;42.714;23.310;2022-11-11T21:15:47;96616.22;;;7.57;99.08
20105;BME280;10212;42.714;23.310;2022-11-11T21:20:48;96600.25;;;7.52;99.46
20105;BME280;10212;42.714;23.310;2022-11-11T21:25:48;96591.50;;;7.53;100.00
20105;BME280;10212;42.714;23.310;2022-11-11T21:30:48;96591.19;;;7.56;100.00
20105;BME280;10212;42.714;23.310;2022-11-11T21:35:49;96589.34;;;7.48;100.00
20105;BME280;10212;42.714;23.310;2022-11-11T21:40:49;96582.44;;;7.39;100.00
20105;BME280;10212;42.714;23.310;2022-11-11T21:45:49;96582.56;;;7.37;100.00
20105;BME280;10212;42.714;23.310;2022-11-11T21:50:50;96568.63;;;7.38;98.90
20105;BME280;10212;42.714;23.310;2022-11-11T21:55:50;96572.38;;;7.26;99.65
20105;BME280;10212;42.714;23.310;2022-11-11T22:00:51;96582.38;;;7.20;99.44
20105;BME280;10212;42.714;23.310;2022-11-11T22:05:51;96580.41;;;7.32;100.00
20105;BME280;10212;42.714;23.310;2022-11-11T22:10:52;96574.69;;;7.29;99.05
20105;BME280;10212;42.714;23.310;2022-11-11T22:15:58;96577.78;;;7.32;100.00
20105;BME280;10212;42.714;23.310;2022-11-11T22:21:02;96582.28;;;7.40;100.00
20105;BME280;10212;42.714;23.310;2022-11-11T22:26:04;96580.66;;;7.39;98.81
20105;BME280;10212;42.714;23.310;2022-11-11T22:31:12;96580.81;;;7.56;100.00
20105;BME280;10212;42.714;23.310;2022-11-11T22:36:13;96585.28;;;7.64;96.42
20105;BME280;10212;42.714;23.310;2022-11-11T22:41:18;96587.34;;;7.60;96.87
20105;BME280;10212;42.714;23.310;2022-11-11T22:46:19;96576.38;;;7.66;95.47
20105;BME280;10212;42.714;23.310;2022-11-11T22:51:20;96564.84;;;7.51;96.26
20105;BME280;10212;42.714;23.310;2022-11-11T22:56:21;96578.69;;;7.41;95.92
20105;BME280;10212;42.714;23.310;2022-11-11T23:01:31;96579.88;;;7.29;96.81
20105;BME280;10212;42.714;23.310;2022-11-11T23:06:32;96576.25;;;7.40;96.49
20105;BME280;10212;42.714;23.310;2022-11-11T23:11:38;96578.06;;;7.39;95.31
20105;BME280;10212;42.714;23.310;2022-11-11T23:16:39;96566.09;;;7.46;94.95
20105;BME280;10212;42.714;23.310;2022-11-11T23:21:40;96563.06;;;7.33;95.96
20105;BME280;10212;42.714;23.310;2022-11-11T23:26:40;96568.41;;;7.31;95.09
20105;BME280;10212;42.714;23.310;2022-11-11T23:31:42;96561.91;;;7.17;96.36
20105;BME280;10212;42.714;23.310;2022-11-11T23:36:43;96572.66;;;7.22;97.70
20105;BME280;10212;42.714;23.310;2022-11-11T23:41:43;96569.03;;;7.15;98.19
20105;BME280;10212;42.714;23.310;2022-11-11T23:46:43;96567.63;;;7.21;96.71
20105;BME280;10212;42.714;23.310;2022-11-11T23:51:44;96546.25;;;7.37;95.37
20105;BME280;10212;42.714;23.310;2022-11-11T23:56:44;96551.78;;;7.24;96.40
